Friday, March 22, 2019 (10:04 UTC)
OPMET DATA
 
Terminal Aerodrome Forecast (TAF) and METAR
TAFs are issued by Aviation Meteorological Office, for Abu Dhabi (OMAA), Bateen (OMAD), Al Ain (OMAL), Dubai (OMDB), Al Maktoum (OMDW), Sharjah (OMSJ), Ras Al Khaimah (OMRK) and Fujairah (OMFJ) airports. These TAFs are issued every 6 hours and are valid for a 30 hour period. METARs (Aviation Routine Weather Reports) are updated hourly.
Show ICAO codes
Select OPMET type:        SEARCH   PRINT
Aviation Meteorology - National Center of Meteorology (NCM)
Telephone: +971 2 5757346 / 5053676
Email: metweb@adiamet.gov.ae
Website: www.avmet.ae
METAR OMAA 221000Z 13010KT 100V160 CAVOK 32/06 Q1012 NOSIG=
METAR OMAD 221000Z 14008KT 090V170 CAVOK 32/06 Q1012 NOSIG=
METAR OMAL 221000Z 16016KT CAVOK 30/07 Q1015 NOSIG=
METAR OMDB 221000Z 02010KT 360V070 CAVOK 29/14 Q1014 NOSIG=
METAR OMDW 221000Z 05008KT 360V070 CAVOK 31/09 Q1014 NOSIG=
METAR OMFJ 221000Z 10007KT 9999 SCT040 25/20 Q1015 RMK A2999 =
METAR OMSJ 221000Z 35008KT 9999 FEW040 29/13 Q1014=
METAR OMRK 221000Z 36009KT 9999 FEW040 26/14 Q1015 A2999=
METAR OTBD 221000Z AUTO 04019KT CAVOK 25/17 Q1012 NOSIG=
METAR OTHH 221000Z 06019KT CAVOK 24/16 Q1012 NOSIG=
METAR OBBI 221000Z 08013KT CAVOK 24/16 Q1013 NOSIG=
METAR OEDF 221000Z 07013KT 9999 SCT040 BKN080 25/12 Q1013 RETS NOSIG=
METAR OEDR 220900Z 06017KT 9999 FEW040 BKN080 26/10 Q1012 NOSIG=
METAR OEJN 220900Z 30010KT CAVOK 29/17 Q1013 NOSIG=
METAR OEMA 221000Z 27013KT CAVOK 30/M13 Q1012 NOSIG=
METAR OEPA 220900Z 09016KT CAVOK 26/07 Q1016 NOSIG=
METAR OERF 220900Z 09010KT CAVOK 31/M02 Q1016=
METAR OERK 221000Z 16010KT CAVOK 28/M04 Q1014 NOSIG=
METAR OERR 220900Z 10014KT CAVOK 22/01 Q1016 NOSIG=
METAR OERY NIL=
METAR OESH 220900Z 25010KT CAVOK 34/04 Q1013 NOSIG=
METAR OETB 220900Z 27006KT CAVOK 21/05 Q1016 NOSIG=
METAR OETF 220900Z 31009KT 9999 FEW030 27/00 Q1020 NOSIG=
METAR OETR 220900Z 06012KT 9999 FEW030 20/05 Q1017=
METAR OEWD 220900Z 32010KT CAVOK 32/08 Q1012 NOSIG=
METAR OEWJ 220900Z 23008KT CAVOK 24/16 Q1013 NOSIG=
METAR OEYN 220900Z 24008KT CAVOK 28/17 Q1011 NOSIG=
METAR OKBK 221000Z 06009KT CAVOK 26/06 Q1015 NOSIG=
METAR OOMS 220950Z 11006KT 070V150 8000 SCT030 OVC100 26/21 Q1015 NOSIG=
METAR COR OOSA 220950Z 18010KT 150V210 7000 SCT025 28/21 Q1013 NOSIG=
METAR OYSN NIL=
METAR OYAA NIL=
 
Friday, March 22, 2019 (10:04 UTC)